sensor_id;sensor_type;location;lat;lon;timestamp;P1;durP1;ratioP1;P2;durP2;ratioP2
52918;SDS011;38793;52.690;6.812;2022-12-20T00:01:07;3.55;;;3.25;;
52918;SDS011;38793;52.690;6.812;2022-12-20T00:03:34;6.05;;;3.30;;
52918;SDS011;38793;52.690;6.812;2022-12-20T00:06:00;6.63;;;3.13;;
52918;SDS011;38793;52.690;6.812;2022-12-20T00:08:26;3.75;;;2.95;;
52918;SDS011;38793;52.690;6.812;2022-12-20T00:10:52;4.53;;;3.30;;
52918;SDS011;38793;52.690;6.812;2022-12-20T00:13:17;3.70;;;2.63;;
52918;SDS011;38793;52.690;6.812;2022-12-20T00:15:43;4.60;;;3.10;;
52918;SDS011;38793;52.690;6.812;2022-12-20T00:18:08;7.47;;;3.13;;
52918;SDS011;38793;52.690;6.812;2022-12-20T00:20:34;3.80;;;3.22;;
52918;SDS011;38793;52.690;6.812;2022-12-20T00:23:00;5.63;;;3.40;;
52918;SDS011;38793;52.690;6.812;2022-12-20T00:25:26;4.45;;;2.95;;
52918;SDS011;38793;52.690;6.812;2022-12-20T00:27:52;4.27;;;2.53;;
52918;SDS011;38793;52.690;6.812;2022-12-20T00:30:17;4.17;;;3.07;;
52918;SDS011;38793;52.690;6.812;2022-12-20T00:32:43;4.72;;;2.65;;
52918;SDS011;38793;52.690;6.812;2022-12-20T00:37:35;5.20;;;2.75;;
52918;SDS011;38793;52.690;6.812;2022-12-20T00:40:02;4.90;;;2.45;;
52918;SDS011;38793;52.690;6.812;2022-12-20T00:42:28;3.95;;;2.45;;
52918;SDS011;38793;52.690;6.812;2022-12-20T00:44:54;4.60;;;3.07;;
52918;SDS011;38793;52.690;6.812;2022-12-20T00:47:19;3.37;;;2.33;;
52918;SDS011;38793;52.690;6.812;2022-12-20T00:49:45;3.90;;;2.93;;
52918;SDS011;38793;52.690;6.812;2022-12-20T00:52:10;3.67;;;2.63;;
52918;SDS011;38793;52.690;6.812;2022-12-20T00:54:36;3.93;;;2.60;;
52918;SDS011;38793;52.690;6.812;2022-12-20T00:57:01;5.70;;;2.80;;
52918;SDS011;38793;52.690;6.812;2022-12-20T00:59:27;3.53;;;2.75;;
52918;SDS011;38793;52.690;6.812;2022-12-20T01:01:53;2.90;;;2.57;;
52918;SDS011;38793;52.690;6.812;2022-12-20T01:04:18;3.43;;;2.13;;
52918;SDS011;38793;52.690;6.812;2022-12-20T01:06:44;2.95;;;2.47;;
52918;SDS011;38793;52.690;6.812;2022-12-20T01:09:10;12.80;;;2.95;;
52918;SDS011;38793;52.690;6.812;2022-12-20T01:11:37;6.63;;;2.55;;
52918;SDS011;38793;52.690;6.812;2022-12-20T01:14:16;5.20;;;2.92;;
52918;SDS011;38793;52.690;6.812;2022-12-20T01:16:43;5.28;;;3.05;;
52918;SDS011;38793;52.690;6.812;2022-12-20T01:19:11;7.32;;;2.65;;
52918;SDS011;38793;52.690;6.812;2022-12-20T01:21:39;3.28;;;2.47;;
52918;SDS011;38793;52.690;6.812;2022-12-20T01:24:09;4.10;;;3.08;;
52918;SDS011;38793;52.690;6.812;2022-12-20T01:26:38;4.32;;;2.90;;
52918;SDS011;38793;52.690;6.812;2022-12-20T01:29:04;4.90;;;2.57;;
52918;SDS011;38793;52.690;6.812;2022-12-20T01:31:30;3.57;;;2.00;;
52918;SDS011;38793;52.690;6.812;2022-12-20T01:33:55;6.05;;;2.55;;
52918;SDS011;38793;52.690;6.812;2022-12-20T01:36:22;2.42;;;1.77;;
52918;SDS011;38793;52.690;6.812;2022-12-20T01:38:49;5.28;;;2.58;;
52918;SDS011;38793;52.690;6.812;2022-12-20T01:41:19;5.57;;;2.72;;
52918;SDS011;38793;52.690;6.812;2022-12-20T01:46:19;3.97;;;2.05;;
52918;SDS011;38793;52.690;6.812;2022-12-20T01:48:51;4.43;;;2.58;;
52918;SDS011;38793;52.690;6.812;2022-12-20T01:51:33;4.82;;;2.17;;
52918;SDS011;38793;52.690;6.812;2022-12-20T01:54:07;5.63;;;2.53;;
52918;SDS011;38793;52.690;6.812;2022-12-20T01:56:36;6.95;;;2.22;;
52918;SDS011;38793;52.690;6.812;2022-12-20T02:01:28;4.57;;;2.75;;
52918;SDS011;38793;52.690;6.812;2022-12-20T02:03:54;2.40;;;1.70;;
52918;SDS011;38793;52.690;6.812;2022-12-20T02:06:21;3.13;;;2.00;;
52918;SDS011;38793;52.690;6.812;2022-12-20T02:08:49;4.25;;;1.88;;
52918;SDS011;38793;52.690;6.812;2022-12-20T02:16:28;3.42;;;2.40;;
52918;SDS011;38793;52.690;6.812;2022-12-20T02:24:21;2.25;;;2.03;;
52918;SDS011;38793;52.690;6.812;2022-12-20T02:27:30;4.90;;;2.40;;
52918;SDS011;38793;52.690;6.812;2022-12-20T02:32:32;4.85;;;2.00;;
52918;SDS011;38793;52.690;6.812;2022-12-20T02:35:03;2.55;;;1.45;;
52918;SDS011;38793;52.690;6.812;2022-12-20T02:37:32;2.50;;;1.77;;
52918;SDS011;38793;52.690;6.812;2022-12-20T02:39:57;2.85;;;1.48;;
52918;SDS011;38793;52.690;6.812;2022-12-20T02:42:23;4.82;;;2.55;;
52918;SDS011;38793;52.690;6.812;2022-12-20T02:44:52;2.88;;;1.83;;
52918;SDS011;38793;52.690;6.812;2022-12-20T02:47:43;5.30;;;2.22;;
52918;SDS011;38793;52.690;6.812;2022-12-20T02:50:33;5.82;;;2.22;;
52918;SDS011;38793;52.690;6.812;2022-12-20T02:53:05;5.00;;;2.25;;
52918;SDS011;38793;52.690;6.812;2022-12-20T02:55:42;3.35;;;1.42;;
52918;SDS011;38793;52.690;6.812;2022-12-20T02:58:11;1.60;;;1.50;;
52918;SDS011;38793;52.690;6.812;2022-12-20T03:01:02;2.33;;;2.00;;
52918;SDS011;38793;52.690;6.812;2022-12-20T03:03:32;3.00;;;1.63;;
52918;SDS011;38793;52.690;6.812;2022-12-20T03:05:59;5.63;;;1.95;;
52918;SDS011;38793;52.690;6.812;2022-12-20T03:08:25;3.67;;;2.22;;
52918;SDS011;38793;52.690;6.812;2022-12-20T03:10:51;2.97;;;2.00;;
52918;SDS011;38793;52.690;6.812;2022-12-20T03:13:18;3.22;;;1.98;;
52918;SDS011;38793;52.690;6.812;2022-12-20T03:15:45;1.75;;;1.58;;
52918;SDS011;38793;52.690;6.812;2022-12-20T03:18:10;6.43;;;2.57;;
52918;SDS011;38793;52.690;6.812;2022-12-20T03:20:36;6.27;;;3.57;;
52918;SDS011;38793;52.690;6.812;2022-12-20T03:23:02;3.17;;;2.33;;
52918;SDS011;38793;52.690;6.812;2022-12-20T03:25:27;4.20;;;2.65;;
52918;SDS011;38793;52.690;6.812;2022-12-20T03:27:53;5.57;;;2.28;;
52918;SDS011;38793;52.690;6.812;2022-12-20T03:30:19;3.77;;;1.97;;
52918;SDS011;38793;52.690;6.812;2022-12-20T03:32:45;4.40;;;2.37;;
52918;SDS011;38793;52.690;6.812;2022-12-20T03:35:10;5.83;;;2.17;;
52918;SDS011;38793;52.690;6.812;2022-12-20T03:37:36;3.10;;;2.53;;
52918;SDS011;38793;52.690;6.812;2022-12-20T03:40:01;5.10;;;2.67;;
52918;SDS011;38793;52.690;6.812;2022-12-20T03:42:27;3.00;;;2.72;;
52918;SDS011;38793;52.690;6.812;2022-12-20T03:44:53;4.50;;;2.53;;
52918;SDS011;38793;52.690;6.812;2022-12-20T03:47:19;4.40;;;3.07;;
52918;SDS011;38793;52.690;6.812;2022-12-20T03:49:44;5.72;;;3.17;;
52918;SDS011;38793;52.690;6.812;2022-12-20T03:52:11;3.75;;;2.63;;
52918;SDS011;38793;52.690;6.812;2022-12-20T03:54:37;4.28;;;2.65;;
52918;SDS011;38793;52.690;6.812;2022-12-20T03:57:03;4.07;;;2.93;;
52918;SDS011;38793;52.690;6.812;2022-12-20T03:59:29;3.25;;;2.20;;
52918;SDS011;38793;52.690;6.812;2022-12-20T04:01:54;4.43;;;3.03;;
52918;SDS011;38793;52.690;6.812;2022-12-20T04:04:20;3.47;;;2.93;;
52918;SDS011;38793;52.690;6.812;2022-12-20T04:06:45;3.83;;;2.40;;
52918;SDS011;38793;52.690;6.812;2022-12-20T04:11:37;3.83;;;2.95;;
52918;SDS011;38793;52.690;6.812;2022-12-20T04:14:03;2.97;;;2.67;;
52918;SDS011;38793;52.690;6.812;2022-12-20T04:16:29;4.05;;;3.03;;
52918;SDS011;38793;52.690;6.812;2022-12-20T04:18:56;6.22;;;3.78;;
52918;SDS011;38793;52.690;6.812;2022-12-20T04:21:23;4.40;;;3.25;;
52918;SDS011;38793;52.690;6.812;2022-12-20T04:23:50;6.95;;;2.70;;
52918;SDS011;38793;52.690;6.812;2022-12-20T04:26:16;3.50;;;2.90;;
52918;SDS011;38793;52.690;6.812;2022-12-20T04:28:42;3.58;;;2.53;;
52918;SDS011;38793;52.690;6.812;2022-12-20T04:31:07;3.60;;;2.70;;
52918;SDS011;38793;52.690;6.812;2022-12-20T04:33:34;3.97;;;2.40;;
52918;SDS011;38793;52.690;6.812;2022-12-20T04:36:00;6.10;;;2.50;;
52918;SDS011;38793;52.690;6.812;2022-12-20T04:38:25;10.70;;;3.53;;
52918;SDS011;38793;52.690;6.812;2022-12-20T04:40:52;6.60;;;3.30;;
52918;SDS011;38793;52.690;6.812;2022-12-20T04:43:19;4.13;;;3.10;;
52918;SDS011;38793;52.690;6.812;2022-12-20T04:45:46;6.38;;;3.30;;
52918;SDS011;38793;52.690;6.812;2022-12-20T04:48:13;5.40;;;2.50;;
52918;SDS011;38793;52.690;6.812;2022-12-20T04:50:39;4.03;;;2.50;;
52918;SDS011;38793;52.690;6.812;2022-12-20T04:53:04;4.73;;;2.17;;
52918;SDS011;38793;52.690;6.812;2022-12-20T04:55:48;3.63;;;2.53;;
52918;SDS011;38793;52.690;6.812;2022-12-20T04:58:14;3.28;;;2.67;;
52918;SDS011;38793;52.690;6.812;2022-12-20T05:00:40;5.70;;;2.55;;
52918;SDS011;38793;52.690;6.812;2022-12-20T05:03:06;2.40;;;2.20;;
52918;SDS011;38793;52.690;6.812;2022-12-20T05:05:32;4.45;;;2.00;;
52918;SDS011;38793;52.690;6.812;2022-12-20T05:07:57;3.10;;;2.40;;
52918;SDS011;38793;52.690;6.812;2022-12-20T05:10:23;3.17;;;2.37;;
52918;SDS011;38793;52.690;6.812;2022-12-20T05:12:49;3.13;;;2.22;;
52918;SDS011;38793;52.690;6.812;2022-12-20T05:15:14;2.53;;;2.13;;
52918;SDS011;38793;52.690;6.812;2022-12-20T05:17:40;6.97;;;3.63;;
52918;SDS011;38793;52.690;6.812;2022-12-20T05:20:06;3.27;;;2.00;;
52918;SDS011;38793;52.690;6.812;2022-12-20T05:22:32;3.30;;;1.75;;
52918;SDS011;38793;52.690;6.812;2022-12-20T05:25:16;4.43;;;2.30;;
52918;SDS011;38793;52.690;6.812;2022-12-20T05:28:00;5.03;;;2.08;;
52918;SDS011;38793;52.690;6.812;2022-12-20T05:30:26;3.23;;;1.70;;
52918;SDS011;38793;52.690;6.812;2022-12-20T05:32:51;3.90;;;2.53;;
52918;SDS011;38793;52.690;6.812;2022-12-20T05:35:17;2.75;;;1.45;;
52918;SDS011;38793;52.690;6.812;2022-12-20T05:37:43;2.20;;;1.80;;
52918;SDS011;38793;52.690;6.812;2022-12-20T05:40:09;3.08;;;2.28;;
52918;SDS011;38793;52.690;6.812;2022-12-20T05:42:35;2.83;;;2.50;;
52918;SDS011;38793;52.690;6.812;2022-12-20T05:45:01;4.55;;;1.75;;
52918;SDS011;38793;52.690;6.812;2022-12-20T05:47:27;2.05;;;1.75;;
52918;SDS011;38793;52.690;6.812;2022-12-20T05:49:57;5.03;;;2.25;;
52918;SDS011;38793;52.690;6.812;2022-12-20T05:54:49;2.67;;;2.13;;
52918;SDS011;38793;52.690;6.812;2022-12-20T05:57:15;4.97;;;1.93;;
52918;SDS011;38793;52.690;6.812;2022-12-20T05:59:41;5.45;;;2.55;;
52918;SDS011;38793;52.690;6.812;2022-12-20T06:02:07;3.85;;;2.20;;
52918;SDS011;38793;52.690;6.812;2022-12-20T06:04:34;4.22;;;1.70;;
52918;SDS011;38793;52.690;6.812;2022-12-20T06:07:02;3.42;;;1.98;;
52918;SDS011;38793;52.690;6.812;2022-12-20T06:09:29;6.57;;;3.10;;
52918;SDS011;38793;52.690;6.812;2022-12-20T06:11:55;2.55;;;1.88;;
52918;SDS011;38793;52.690;6.812;2022-12-20T06:14:21;2.45;;;1.77;;
52918;SDS011;38793;52.690;6.812;2022-12-20T06:16:46;2.73;;;1.80;;
52918;SDS011;38793;52.690;6.812;2022-12-20T06:19:12;5.50;;;2.03;;
52918;SDS011;38793;52.690;6.812;2022-12-20T06:21:38;3.03;;;2.40;;
52918;SDS011;38793;52.690;6.812;2022-12-20T06:24:04;5.07;;;2.38;;
52918;SDS011;38793;52.690;6.812;2022-12-20T06:26:30;4.10;;;2.38;;
52918;SDS011;38793;52.690;6.812;2022-12-20T06:29:00;4.15;;;2.22;;
52918;SDS011;38793;52.690;6.812;2022-12-20T06:31:31;4.50;;;1.88;;
52918;SDS011;38793;52.690;6.812;2022-12-20T06:33:57;5.97;;;2.63;;
52918;SDS011;38793;52.690;6.812;2022-12-20T06:36:23;4.78;;;1.98;;
52918;SDS011;38793;52.690;6.812;2022-12-20T06:38:48;2.50;;;1.88;;
52918;SDS011;38793;52.690;6.812;2022-12-20T06:41:14;6.05;;;2.60;;
52918;SDS011;38793;52.690;6.812;2022-12-20T06:43:40;4.07;;;2.10;;
52918;SDS011;38793;52.690;6.812;2022-12-20T06:46:05;5.60;;;1.67;;
52918;SDS011;38793;52.690;6.812;2022-12-20T06:48:31;4.87;;;2.23;;
52918;SDS011;38793;52.690;6.812;2022-12-20T06:50:57;3.13;;;2.27;;
52918;SDS011;38793;52.690;6.812;2022-12-20T06:53:22;3.67;;;2.77;;
52918;SDS011;38793;52.690;6.812;2022-12-20T06:55:48;3.10;;;2.67;;
52918;SDS011;38793;52.690;6.812;2022-12-20T06:58:14;3.85;;;2.67;;
52918;SDS011;38793;52.690;6.812;2022-12-20T07:00:41;4.78;;;3.15;;
52918;SDS011;38793;52.690;6.812;2022-12-20T07:03:06;3.47;;;2.90;;
52918;SDS011;38793;52.690;6.812;2022-12-20T07:05:32;5.97;;;3.30;;
52918;SDS011;38793;52.690;6.812;2022-12-20T07:07:57;4.60;;;3.40;;
52918;SDS011;38793;52.690;6.812;2022-12-20T07:10:23;4.50;;;3.17;;
52918;SDS011;38793;52.690;6.812;2022-12-20T07:12:49;3.30;;;3.00;;
52918;SDS011;38793;52.690;6.812;2022-12-20T07:15:16;5.47;;;3.40;;
52918;SDS011;38793;52.690;6.812;2022-12-20T07:17:42;4.60;;;4.00;;
52918;SDS011;38793;52.690;6.812;2022-12-20T07:20:08;6.95;;;4.13;;
52918;SDS011;38793;52.690;6.812;2022-12-20T07:22:34;5.13;;;3.55;;
52918;SDS011;38793;52.690;6.812;2022-12-20T07:25:00;6.07;;;3.80;;
52918;SDS011;38793;52.690;6.812;2022-12-20T07:27:25;8.77;;;4.57;;
52918;SDS011;38793;52.690;6.812;2022-12-20T07:29:51;4.03;;;3.63;;
52918;SDS011;38793;52.690;6.812;2022-12-20T07:32:16;5.30;;;4.23;;
52918;SDS011;38793;52.690;6.812;2022-12-20T07:34:42;5.07;;;4.40;;
52918;SDS011;38793;52.690;6.812;2022-12-20T07:37:08;9.97;;;4.17;;
52918;SDS011;38793;52.690;6.812;2022-12-20T07:39:33;5.78;;;3.80;;
52918;SDS011;38793;52.690;6.812;2022-12-20T07:41:59;6.20;;;3.40;;
52918;SDS011;38793;52.690;6.812;2022-12-20T07:44:25;5.90;;;3.83;;
52918;SDS011;38793;52.690;6.812;2022-12-20T07:46:50;5.10;;;3.67;;
52918;SDS011;38793;52.690;6.812;2022-12-20T07:49:16;3.97;;;3.17;;
52918;SDS011;38793;52.690;6.812;2022-12-20T07:51:42;6.00;;;4.13;;
52918;SDS011;38793;52.690;6.812;2022-12-20T07:54:16;3.63;;;2.78;;
52918;SDS011;38793;52.690;6.812;2022-12-20T07:56:53;6.18;;;3.03;;
52918;SDS011;38793;52.690;6.812;2022-12-20T07:59:26;12.90;;;4.03;;
52918;SDS011;38793;52.690;6.812;2022-12-20T08:01:57;5.88;;;2.60;;
52918;SDS011;38793;52.690;6.812;2022-12-20T08:04:24;4.40;;;3.03;;
52918;SDS011;38793;52.690;6.812;2022-12-20T08:06:53;2.75;;;2.40;;
52918;SDS011;38793;52.690;6.812;2022-12-20T08:09:20;2.38;;;2.15;;
52918;SDS011;38793;52.690;6.812;2022-12-20T08:11:47;4.50;;;2.40;;
52918;SDS011;38793;52.690;6.812;2022-12-20T08:16:41;3.90;;;2.87;;
52918;SDS011;38793;52.690;6.812;2022-12-20T08:19:07;6.72;;;2.35;;
52918;SDS011;38793;52.690;6.812;2022-12-20T08:21:33;5.45;;;2.72;;
52918;SDS011;38793;52.690;6.812;2022-12-20T08:23:59;4.15;;;2.00;;
52918;SDS011;38793;52.690;6.812;2022-12-20T08:26:24;3.90;;;2.50;;
52918;SDS011;38793;52.690;6.812;2022-12-20T08:28:50;4.85;;;3.13;;
52918;SDS011;38793;52.690;6.812;2022-12-20T08:31:16;3.17;;;1.83;;
52918;SDS011;38793;52.690;6.812;2022-12-20T08:33:41;2.20;;;1.80;;
52918;SDS011;38793;52.690;6.812;2022-12-20T08:36:08;3.92;;;1.85;;
52918;SDS011;38793;52.690;6.812;2022-12-20T08:38:35;2.85;;;2.10;;
52918;SDS011;38793;52.690;6.812;2022-12-20T08:41:09;2.30;;;2.05;;
52918;SDS011;38793;52.690;6.812;2022-12-20T08:43:37;5.13;;;2.33;;
52918;SDS011;38793;52.690;6.812;2022-12-20T08:46:04;2.42;;;1.77;;
52918;SDS011;38793;52.690;6.812;2022-12-20T08:48:31;6.53;;;3.08;;
52918;SDS011;38793;52.690;6.812;2022-12-20T08:50:58;6.35;;;2.13;;
52918;SDS011;38793;52.690;6.812;2022-12-20T08:53:26;3.05;;;1.95;;
52918;SDS011;38793;52.690;6.812;2022-12-20T08:55:53;2.55;;;1.60;;
52918;SDS011;38793;52.690;6.812;2022-12-20T08:58:26;4.88;;;2.45;;
52918;SDS011;38793;52.690;6.812;2022-12-20T09:00:52;3.83;;;2.30;;
52918;SDS011;38793;52.690;6.812;2022-12-20T09:03:17;3.03;;;1.90;;
52918;SDS011;38793;52.690;6.812;2022-12-20T09:05:44;4.53;;;2.53;;
52918;SDS011;38793;52.690;6.812;2022-12-20T09:08:10;3.15;;;2.00;;
52918;SDS011;38793;52.690;6.812;2022-12-20T09:10:36;3.33;;;2.30;;
52918;SDS011;38793;52.690;6.812;2022-12-20T09:13:01;6.63;;;2.23;;
52918;SDS011;38793;52.690;6.812;2022-12-20T09:15:27;3.13;;;2.23;;
52918;SDS011;38793;52.690;6.812;2022-12-20T09:17:53;5.70;;;2.23;;
52918;SDS011;38793;52.690;6.812;2022-12-20T09:20:19;2.97;;;2.60;;
52918;SDS011;38793;52.690;6.812;2022-12-20T09:22:45;2.90;;;2.08;;
52918;SDS011;38793;52.690;6.812;2022-12-20T09:25:10;3.93;;;2.07;;
52918;SDS011;38793;52.690;6.812;2022-12-20T09:27:36;8.65;;;2.58;;
52918;SDS011;38793;52.690;6.812;2022-12-20T09:30:02;3.05;;;1.58;;
52918;SDS011;38793;52.690;6.812;2022-12-20T09:34:54;3.10;;;1.85;;
52918;SDS011;38793;52.690;6.812;2022-12-20T09:37:20;6.57;;;2.05;;
52918;SDS011;38793;52.690;6.812;2022-12-20T09:39:47;6.17;;;2.23;;
52918;SDS011;38793;52.690;6.812;2022-12-20T09:42:14;4.72;;;2.10;;
52918;SDS011;38793;52.690;6.812;2022-12-20T09:44:40;6.30;;;2.55;;
52918;SDS011;38793;52.690;6.812;2022-12-20T09:49:39;4.00;;;1.92;;
52918;SDS011;38793;52.690;6.812;2022-12-20T10:00:28;4.13;;;2.13;;
52918;SDS011;38793;52.690;6.812;2022-12-20T10:03:01;3.85;;;2.03;;
52918;SDS011;38793;52.690;6.812;2022-12-20T10:05:35;4.63;;;2.08;;
52918;SDS011;38793;52.690;6.812;2022-12-20T10:08:35;2.58;;;2.35;;
52918;SDS011;38793;52.690;6.812;2022-12-20T10:11:18;3.67;;;2.33;;
52918;SDS011;38793;52.690;6.812;2022-12-20T10:16:51;4.82;;;2.50;;
52918;SDS011;38793;52.690;6.812;2022-12-20T10:24:35;3.92;;;2.63;;
52918;SDS011;38793;52.690;6.812;2022-12-20T10:27:12;7.47;;;2.20;;
52918;SDS011;38793;52.690;6.812;2022-12-20T10:29:41;2.80;;;2.05;;
52918;SDS011;38793;52.690;6.812;2022-12-20T10:32:15;4.57;;;2.03;;
52918;SDS011;38793;52.690;6.812;2022-12-20T10:34:55;3.38;;;2.42;;
52918;SDS011;38793;52.690;6.812;2022-12-20T10:37:29;6.47;;;2.40;;
52918;SDS011;38793;52.690;6.812;2022-12-20T10:39:56;10.13;;;3.08;;
52918;SDS011;38793;52.690;6.812;2022-12-20T10:42:22;6.20;;;2.40;;
52918;SDS011;38793;52.690;6.812;2022-12-20T10:45:02;4.00;;;2.40;;
52918;SDS011;38793;52.690;6.812;2022-12-20T10:50:35;3.22;;;2.08;;
52918;SDS011;38793;52.690;6.812;2022-12-20T10:55:40;3.38;;;1.98;;
52918;SDS011;38793;52.690;6.812;2022-12-20T10:58:29;4.68;;;2.60;;
52918;SDS011;38793;52.690;6.812;2022-12-20T11:01:02;4.53;;;2.65;;
52918;SDS011;38793;52.690;6.812;2022-12-20T11:03:30;4.03;;;2.53;;
52918;SDS011;38793;52.690;6.812;2022-12-20T11:05:57;3.47;;;1.83;;
52918;SDS011;38793;52.690;6.812;2022-12-20T11:08:26;5.85;;;2.90;;
52918;SDS011;38793;52.690;6.812;2022-12-20T11:13:42;3.42;;;2.38;;
52918;SDS011;38793;52.690;6.812;2022-12-20T11:16:42;8.20;;;4.07;;
52918;SDS011;38793;52.690;6.812;2022-12-20T11:19:28;2.88;;;2.03;;
52918;SDS011;38793;52.690;6.812;2022-12-20T11:22:04;5.40;;;2.22;;
52918;SDS011;38793;52.690;6.812;2022-12-20T11:24:39;7.15;;;2.80;;
52918;SDS011;38793;52.690;6.812;2022-12-20T11:27:23;5.22;;;2.95;;
52918;SDS011;38793;52.690;6.812;2022-12-20T11:32:52;5.70;;;2.67;;
52918;SDS011;38793;52.690;6.812;2022-12-20T11:41:07;6.18;;;2.83;;
52918;SDS011;38793;52.690;6.812;2022-12-20T11:46:46;7.47;;;3.85;;
52918;SDS011;38793;52.690;6.812;2022-12-20T11:54:29;3.88;;;2.63;;
52918;SDS011;38793;52.690;6.812;2022-12-20T12:00:02;5.65;;;3.20;;
52918;SDS011;38793;52.690;6.812;2022-12-20T12:02:32;8.70;;;3.30;;
52918;SDS011;38793;52.690;6.812;2022-12-20T12:05:06;5.90;;;3.72;;
52918;SDS011;38793;52.690;6.812;2022-12-20T12:07:45;5.38;;;2.53;;
52918;SDS011;38793;52.690;6.812;2022-12-20T12:10:17;6.55;;;3.85;;
52918;SDS011;38793;52.690;6.812;2022-12-20T12:12:49;8.55;;;3.65;;
52918;SDS011;38793;52.690;6.812;2022-12-20T12:15:27;5.65;;;3.38;;
52918;SDS011;38793;52.690;6.812;2022-12-20T12:20:45;6.78;;;3.67;;
52918;SDS011;38793;52.690;6.812;2022-12-20T12:25:46;6.75;;;3.42;;
52918;SDS011;38793;52.690;6.812;2022-12-20T12:28:12;4.63;;;3.15;;
52918;SDS011;38793;52.690;6.812;2022-12-20T12:30:40;4.70;;;3.30;;
52918;SDS011;38793;52.690;6.812;2022-12-20T12:33:18;6.45;;;4.38;;
52918;SDS011;38793;52.690;6.812;2022-12-20T12:36:06;5.88;;;3.47;;
52918;SDS011;38793;52.690;6.812;2022-12-20T12:39:15;5.28;;;3.28;;
52918;SDS011;38793;52.690;6.812;2022-12-20T12:45:15;4.40;;;3.35;;
52918;SDS011;38793;52.690;6.812;2022-12-20T12:47:54;5.80;;;3.50;;
52918;SDS011;38793;52.690;6.812;2022-12-20T12:50:27;6.13;;;4.03;;
52918;SDS011;38793;52.690;6.812;2022-12-20T12:52:58;8.80;;;4.85;;
52918;SDS011;38793;52.690;6.812;2022-12-20T12:55:45;8.85;;;4.53;;
52918;SDS011;38793;52.690;6.812;2022-12-20T12:58:12;5.57;;;3.65;;
52918;SDS011;38793;52.690;6.812;2022-12-20T13:11:39;11.00;;;5.10;;
52918;SDS011;38793;52.690;6.812;2022-12-20T13:16:52;6.97;;;4.95;;
52918;SDS011;38793;52.690;6.812;2022-12-20T13:19:38;6.25;;;5.45;;
52918;SDS011;38793;52.690;6.812;2022-12-20T13:27:27;10.95;;;5.57;;
52918;SDS011;38793;52.690;6.812;2022-12-20T13:40:20;10.23;;;5.63;;
52918;SDS011;38793;52.690;6.812;2022-12-20T13:42:55;5.68;;;5.18;;
52918;SDS011;38793;52.690;6.812;2022-12-20T13:45:23;5.75;;;5.15;;
52918;SDS011;38793;52.690;6.812;2022-12-20T13:47:52;7.55;;;5.57;;
52918;SDS011;38793;52.690;6.812;2022-12-20T13:50:23;5.72;;;5.20;;
52918;SDS011;38793;52.690;6.812;2022-12-20T13:52:54;8.98;;;5.97;;
52918;SDS011;38793;52.690;6.812;2022-12-20T13:55:35;10.52;;;5.43;;
52918;SDS011;38793;52.690;6.812;2022-12-20T13:58:03;6.85;;;6.25;;
52918;SDS011;38793;52.690;6.812;2022-12-20T14:00:30;6.43;;;5.75;;
52918;SDS011;38793;52.690;6.812;2022-12-20T14:02:56;6.25;;;5.57;;
52918;SDS011;38793;52.690;6.812;2022-12-20T14:05:25;12.13;;;6.10;;
52918;SDS011;38793;52.690;6.812;2022-12-20T14:07:58;7.00;;;6.00;;
52918;SDS011;38793;52.690;6.812;2022-12-20T14:10:25;8.32;;;6.93;;
52918;SDS011;38793;52.690;6.812;2022-12-20T14:12:53;10.02;;;6.38;;
52918;SDS011;38793;52.690;6.812;2022-12-20T14:15:28;9.30;;;6.95;;
52918;SDS011;38793;52.690;6.812;2022-12-20T14:18:03;7.28;;;6.55;;
52918;SDS011;38793;52.690;6.812;2022-12-20T14:20:42;9.43;;;6.15;;
52918;SDS011;38793;52.690;6.812;2022-12-20T14:23:21;17.25;;;7.75;;
52918;SDS011;38793;52.690;6.812;2022-12-20T14:25:50;10.52;;;7.68;;
52918;SDS011;38793;52.690;6.812;2022-12-20T14:28:55;7.95;;;7.07;;
52918;SDS011;38793;52.690;6.812;2022-12-20T14:31:56;12.95;;;7.47;;
52918;SDS011;38793;52.690;6.812;2022-12-20T14:36:36;10.45;;;7.30;;
52918;SDS011;38793;52.690;6.812;2022-12-20T14:39:22;9.32;;;7.35;;
52918;SDS011;38793;52.690;6.812;2022-12-20T14:41:57;10.25;;;7.43;;
52918;SDS011;38793;52.690;6.812;2022-12-20T14:44:30;9.20;;;7.68;;
52918;SDS011;38793;52.690;6.812;2022-12-20T14:46:57;12.60;;;7.93;;
52918;SDS011;38793;52.690;6.812;2022-12-20T14:54:41;8.27;;;7.25;;
52918;SDS011;38793;52.690;6.812;2022-12-20T14:57:19;8.30;;;6.97;;
52918;SDS011;38793;52.690;6.812;2022-12-20T15:08:14;11.85;;;7.63;;
52918;SDS011;38793;52.690;6.812;2022-12-20T15:13:38;11.50;;;8.10;;
52918;SDS011;38793;52.690;6.812;2022-12-20T15:16:19;8.90;;;8.00;;
52918;SDS011;38793;52.690;6.812;2022-12-20T15:18:47;9.20;;;8.32;;
52918;SDS011;38793;52.690;6.812;2022-12-20T15:21:14;9.30;;;7.60;;
52918;SDS011;38793;52.690;6.812;2022-12-20T15:24:05;9.23;;;8.30;;
52918;SDS011;38793;52.690;6.812;2022-12-20T15:26:35;10.73;;;9.05;;
52918;SDS011;38793;52.690;6.812;2022-12-20T15:29:01;10.80;;;9.70;;
52918;SDS011;38793;52.690;6.812;2022-12-20T15:31:27;15.52;;;9.43;;
52918;SDS011;38793;52.690;6.812;2022-12-20T15:33:54;12.13;;;10.10;;
52918;SDS011;38793;52.690;6.812;2022-12-20T15:36:23;12.75;;;9.55;;
52918;SDS011;38793;52.690;6.812;2022-12-20T15:38:51;10.43;;;9.27;;
52918;SDS011;38793;52.690;6.812;2022-12-20T15:43:45;11.07;;;8.35;;
52918;SDS011;38793;52.690;6.812;2022-12-20T15:46:11;11.27;;;9.55;;
52918;SDS011;38793;52.690;6.812;2022-12-20T15:48:37;9.68;;;8.85;;
52918;SDS011;38793;52.690;6.812;2022-12-20T15:51:05;10.85;;;9.85;;
52918;SDS011;38793;52.690;6.812;2022-12-20T15:53:39;10.27;;;9.27;;
52918;SDS011;38793;52.690;6.812;2022-12-20T15:56:05;10.20;;;9.23;;
52918;SDS011;38793;52.690;6.812;2022-12-20T15:58:36;9.65;;;8.68;;
52918;SDS011;38793;52.690;6.812;2022-12-20T16:01:02;10.53;;;9.57;;
52918;SDS011;38793;52.690;6.812;2022-12-20T16:03:29;10.30;;;9.33;;
52918;SDS011;38793;52.690;6.812;2022-12-20T16:05:55;23.23;;;11.48;;
52918;SDS011;38793;52.690;6.812;2022-12-20T16:08:21;11.45;;;9.30;;
52918;SDS011;38793;52.690;6.812;2022-12-20T16:10:48;11.80;;;9.88;;
52918;SDS011;38793;52.690;6.812;2022-12-20T16:13:16;11.77;;;9.20;;
52918;SDS011;38793;52.690;6.812;2022-12-20T16:15:48;12.95;;;10.05;;
52918;SDS011;38793;52.690;6.812;2022-12-20T16:18:15;10.48;;;9.57;;
52918;SDS011;38793;52.690;6.812;2022-12-20T16:20:41;12.93;;;10.52;;
52918;SDS011;38793;52.690;6.812;2022-12-20T16:23:17;11.98;;;10.88;;
52918;SDS011;38793;52.690;6.812;2022-12-20T16:28:09;11.45;;;9.65;;
52918;SDS011;38793;52.690;6.812;2022-12-20T16:30:35;11.07;;;9.93;;
52918;SDS011;38793;52.690;6.812;2022-12-20T16:33:01;14.00;;;11.97;;
52918;SDS011;38793;52.690;6.812;2022-12-20T16:35:31;13.52;;;11.07;;
52918;SDS011;38793;52.690;6.812;2022-12-20T16:37:58;12.35;;;11.00;;
52918;SDS011;38793;52.690;6.812;2022-12-20T16:40:26;12.52;;;11.32;;
52918;SDS011;38793;52.690;6.812;2022-12-20T16:42:53;13.25;;;11.95;;
52918;SDS011;38793;52.690;6.812;2022-12-20T16:45:20;14.75;;;11.98;;
52918;SDS011;38793;52.690;6.812;2022-12-20T16:47:47;13.30;;;11.95;;
52918;SDS011;38793;52.690;6.812;2022-12-20T16:50:14;15.88;;;12.88;;
52918;SDS011;38793;52.690;6.812;2022-12-20T16:52:40;15.25;;;12.63;;
52918;SDS011;38793;52.690;6.812;2022-12-20T16:55:09;13.32;;;11.93;;
52918;SDS011;38793;52.690;6.812;2022-12-20T16:57:38;14.07;;;12.63;;
52918;SDS011;38793;52.690;6.812;2022-12-20T17:00:04;14.15;;;12.85;;
52918;SDS011;38793;52.690;6.812;2022-12-20T17:02:31;16.30;;;13.50;;
52918;SDS011;38793;52.690;6.812;2022-12-20T17:04:58;14.43;;;13.13;;
52918;SDS011;38793;52.690;6.812;2022-12-20T17:09:50;14.73;;;13.32;;
52918;SDS011;38793;52.690;6.812;2022-12-20T17:12:16;15.50;;;13.90;;
52918;SDS011;38793;52.690;6.812;2022-12-20T17:14:44;15.32;;;13.63;;
52918;SDS011;38793;52.690;6.812;2022-12-20T17:17:10;15.68;;;12.90;;
52918;SDS011;38793;52.690;6.812;2022-12-20T17:19:36;18.00;;;14.35;;